Time;durP1;ratioP1;P1;durP2;ratioP2;P2;SDS_P1;SDS_P2;PMS_P1;PMS_P2;Temp;Humidity;BMP_temperature;BMP_pressure;BME280_temperature;BME280_humidity;BME280_pressure;Samples;Min_cycle;Max_cycle;Signal;HPM_P1;HPM_P2
2022/07/03 00:00:57;;;;;;;10.88;4.97;;;;;;;23.19;50.71;100241.97;4412489;32;33803;-91
2022/07/03 00:03:47;;;;;;;5.60;4.80;;;;;;;23.27;50.34;100237.75;4397104;32;32719;-90
2022/07/03 00:06:19;;;;;;;6.50;5.47;;;;;;;23.23;50.34;100239.84;4397538;32;32434;-91
2022/07/03 00:08:50;;;;;;;5.47;4.90;;;;;;;23.29;50.17;100238.44;4397362;32;34160;-88
2022/07/03 00:11:18;;;;;;;7.43;6.20;;;;;;;23.18;50.56;100242.12;4409420;32;33690;-87
2022/07/03 00:13:46;;;;;;;6.28;5.55;;;;;;;23.18;50.30;100232.19;4396666;32;32238;-87
2022/07/03 00:16:13;;;;;;;6.15;5.55;;;;;;;23.16;50.52;100244.94;4395579;32;33358;-87
2022/07/03 00:18:43;;;;;;;8.23;5.62;;;;;;;22.94;51.13;100245.16;4395540;32;34327;-87
2022/07/03 00:21:17;;;;;;;7.45;5.22;;;;;;;22.86;51.61;100243.09;4388166;32;32415;-87
2022/07/03 00:23:55;;;;;;;6.60;5.28;;;;;;;22.82;52.10;100243.50;4396934;32;33636;-88
2022/07/03 00:26:30;;;;;;;5.85;5.22;;;;;;;22.79;52.10;100235.66;4402586;32;34025;-90
2022/07/03 00:29:00;;;;;;;7.05;5.40;;;;;;;22.81;51.95;100236.41;4390853;32;35027;-89
2022/07/03 00:31:30;;;;;;;5.50;5.00;;;;;;;22.85;51.92;100227.94;4379263;32;33017;-90
2022/07/03 00:34:01;;;;;;;6.03;5.43;;;;;;;22.95;51.59;100225.31;4395292;32;32595;-90
2022/07/03 00:36:47;;;;;;;5.75;5.15;;;;;;;22.82;51.98;100235.41;4396883;32;32968;-91
2022/07/03 00:39:39;;;;;;;6.72;5.62;;;;;;;22.89;51.69;100229.41;4386793;32;32649;-88
2022/07/03 00:42:07;;;;;;;6.95;5.78;;;;;;;22.87;51.43;100235.84;4401306;32;33518;-88
2022/07/03 00:44:50;;;;;;;6.50;4.60;;;;;;;22.83;51.59;100237.97;4394465;32;33082;-87
2022/07/03 00:47:22;;;;;;;5.55;5.00;;;;;;;22.81;51.73;100239.94;4394425;32;31982;-88
2022/07/03 00:49:52;;;;;;;8.45;5.32;;;;;;;22.81;51.71;100236.41;4399477;32;34340;-88
2022/07/03 00:52:22;;;;;;;5.85;5.25;;;;;;;22.88;51.47;100240.25;4398378;32;33583;-87
2022/07/03 00:54:56;;;;;;;5.90;4.95;;;;;;;22.79;51.52;100235.66;4382430;32;35489;-87
2022/07/03 00:57:27;;;;;;;5.18;4.68;;;;;;;22.79;51.74;100232.97;4388680;32;31702;-86
2022/07/03 00:59:57;;;;;;;5.77;5.10;;;;;;;22.94;51.21;100223.59;4398571;32;35343;-87
2022/07/03 01:02:56;;;;;;;6.07;5.47;;;;;;;22.85;51.24;100224.38;4397491;32;33396;-86
2022/07/03 01:05:28;;;;;;;10.00;6.18;;;;;;;22.80;51.75;100221.25;4389295;32;32332;-87
2022/07/03 01:08:20;;;;;;;6.97;5.35;;;;;;;22.64;52.04;100227.94;4414430;32;33108;-87
2022/07/03 01:11:14;;;;;;;6.82;5.87;;;;;;;22.77;51.45;100226.87;4408156;32;32583;-87
2022/07/03 01:14:20;;;;;;;9.38;5.85;;;;;;;22.60;51.94;100221.16;4414782;32;33384;-87
2022/07/03 01:16:58;;;;;;;6.43;5.15;;;;;;;22.58;52.29;100215.03;4417085;32;34036;-87
2022/07/03 01:19:32;;;;;;;7.20;5.68;;;;;;;22.58;52.38;100211.50;4413971;32;33174;-88
2022/07/03 01:22:25;;;;;;;6.95;5.25;;;;;;;22.52;52.57;100218.28;4428762;32;33530;-87
2022/07/03 01:25:18;;;;;;;6.07;5.15;;;;;;;22.49;52.55;100223.91;4426181;32;33652;-88
2022/07/03 01:28:08;;;;;;;8.40;5.53;;;;;;;22.38;52.92;100215.94;4409024;32;33556;-89
2022/07/03 01:30:39;;;;;;;8.82;5.25;;;;;;;22.38;53.26;100210.53;4413821;32;32952;-88
2022/07/03 01:33:12;;;;;;;12.32;5.93;;;;;;;22.44;52.93;100210.00;4403778;32;33739;-87
2022/07/03 01:35:42;;;;;;;6.03;5.43;;;;;;;22.43;53.01;100209.16;4414126;32;34765;-88
2022/07/03 01:38:12;;;;;;;9.40;5.50;;;;;;;22.27;53.49;100218.69;4415076;32;33967;-88
2022/07/03 01:40:42;;;;;;;7.37;5.60;;;;;;;22.15;53.59;100216.06;4399469;32;33344;-88
2022/07/03 01:43:11;;;;;;;7.95;5.87;;;;;;;22.19;53.45;100211.28;4405838;32;32727;-88
2022/07/03 01:45:43;;;;;;;6.30;5.05;;;;;;;22.08;54.07;100204.09;4414500;32;33647;-87
2022/07/03 01:48:12;;;;;;;6.68;5.97;;;;;;;22.21;53.63;100201.22;4416445;32;33852;-87
2022/07/03 01:50:41;;;;;;;9.38;6.05;;;;;;;22.17;53.89;100206.03;4404510;32;32471;-88
2022/07/03 01:53:10;;;;;;;9.02;5.25;;;;;;;22.13;54.25;100203.75;4394289;32;33351;-87
2022/07/03 01:55:39;;;;;;;8.60;6.75;;;;;;;22.12;54.17;100210.06;4412672;32;34041;-88
2022/07/03 01:58:08;;;;;;;5.60;4.95;;;;;;;22.03;54.46;100209.03;4413583;32;33896;-89
2022/07/03 02:01:02;;;;;;;6.07;5.47;;;;;;;22.06;54.04;100197.97;4414397;32;32226;-88
2022/07/03 02:03:41;;;;;;;6.82;5.37;;;;;;;21.87;55.00;100200.53;4415160;32;34334;-88
2022/07/03 02:06:39;;;;;;;5.75;5.15;;;;;;;21.76;55.37;100205.97;4414340;32;33952;-88
2022/07/03 02:09:10;;;;;;;9.18;5.07;;;;;;;21.89;55.05;100201.28;4414069;32;33465;-91
2022/07/03 02:12:00;;;;;;;10.98;6.30;;;;;;;21.91;54.83;100210.03;4385107;32;32405;-90
2022/07/03 02:14:36;;;;;;;8.93;6.47;;;;;;;21.83;55.07;100209.81;4377134;32;33573;-90
2022/07/03 02:17:07;;;;;;;6.07;5.47;;;;;;;21.80;55.35;100210.09;4381440;32;33290;-89
2022/07/03 02:19:54;;;;;;;7.60;6.12;;;;;;;21.77;55.48;100216.56;4381464;32;33754;-91
2022/07/03 02:22:40;;;;;;;7.18;5.47;;;;;;;21.86;55.16;100212.28;4410227;32;32315;-91
2022/07/03 02:25:36;;;;;;;9.85;5.12;;;;;;;21.81;55.32;100218.03;4394433;32;34659;-91
2022/07/03 02:28:50;;;;;;;12.07;6.22;;;;;;;21.75;55.72;100217.72;4376591;32;33722;-91
2022/07/03 02:31:49;;;;;;;6.60;5.90;;;;;;;21.87;55.28;100211.28;4385150;32;34435;-91
2022/07/03 02:34:46;;;;;;;6.43;5.80;;;;;;;21.67;55.92;100211.13;4373396;32;32186;-90
2022/07/03 02:37:19;;;;;;;9.13;5.80;;;;;;;21.66;55.54;100211.25;4383909;32;32493;-90
2022/07/03 02:39:53;;;;;;;9.52;5.85;;;;;;;21.66;55.72;100217.47;4369467;32;33058;-90
2022/07/03 02:42:51;;;;;;;7.68;5.95;;;;;;;21.59;55.88;100212.72;4371826;32;32522;-90
2022/07/03 02:45:25;;;;;;;5.78;5.10;;;;;;;21.57;56.03;100210.19;4366113;32;32626;-90
2022/07/03 02:47:58;;;;;;;7.70;5.75;;;;;;;21.55;56.15;100216.66;4368514;32;34142;-90
2022/07/03 02:50:32;;;;;;;8.52;6.20;;;;;;;21.59;55.96;100224.34;4382027;32;34094;-90
2022/07/03 02:53:35;;;;;;;8.68;6.68;;;;;;;21.47;56.16;100234.28;4374736;32;32831;-90
2022/07/03 02:56:50;;;;;;;8.55;6.10;;;;;;;21.45;56.16;100227.31;4410356;32;33926;-90
2022/07/03 03:00:02;;;;;;;9.52;5.82;;;;;;;21.30;56.55;100225.84;4402932;32;33297;-90
2022/07/03 03:02:52;;;;;;;7.65;6.43;;;;;;;21.49;55.92;100220.72;4413226;32;33402;-90
2022/07/03 03:05:46;;;;;;;6.47;5.82;;;;;;;21.40;56.31;100213.41;4422429;32;32555;-90
2022/07/03 03:08:22;;;;;;;6.95;5.82;;;;;;;21.44;56.25;100217.53;4432009;32;34146;-89
2022/07/03 03:11:00;;;;;;;8.32;6.45;;;;;;;21.18;57.01;100223.19;4412609;32;33342;-89
2022/07/03 03:13:41;;;;;;;7.40;6.50;;;;;;;21.27;56.79;100226.09;4403968;32;34156;-87
2022/07/03 03:16:11;;;;;;;7.07;6.00;;;;;;;21.25;56.85;100230.75;4415953;32;33760;-88
2022/07/03 03:18:43;;;;;;;7.28;6.12;;;;;;;21.37;56.48;100224.41;4416929;32;32081;-87
2022/07/03 03:21:13;;;;;;;9.63;6.15;;;;;;;21.32;56.89;100224.78;4417673;32;32704;-87
2022/07/03 03:23:48;;;;;;;7.45;5.80;;;;;;;21.38;56.59;100216.22;4409987;32;33256;-88
2022/07/03 03:26:25;;;;;;;7.22;6.25;;;;;;;21.37;56.69;100213.69;4415470;32;33370;-88
2022/07/03 03:28:54;;;;;;;10.48;6.68;;;;;;;21.23;57.33;100222.81;4416196;32;34096;-87
2022/07/03 03:31:24;;;;;;;8.30;6.97;;;;;;;21.35;57.03;100218.31;4410043;32;34793;-87
2022/07/03 03:33:53;;;;;;;9.70;6.37;;;;;;;21.28;57.49;100206.34;4417311;32;33311;-88
2022/07/03 03:36:29;;;;;;;12.10;6.32;;;;;;;21.39;57.23;100212.56;4401049;32;32887;-88
2022/07/03 03:38:58;;;;;;;15.23;6.87;;;;;;;21.40;57.55;100202.66;4411661;32;33394;-89
2022/07/03 03:41:26;;;;;;;13.18;7.25;;;;;;;21.34;58.12;100206.72;4408417;32;33132;-88
2022/07/03 03:43:56;;;;;;;12.10;6.93;;;;;;;21.41;58.25;100204.34;4428902;32;32593;-87
2022/07/03 03:46:24;;;;;;;8.88;6.65;;;;;;;21.29;59.46;100206.19;4416280;32;32092;-88
2022/07/03 03:48:52;;;;;;;8.15;7.10;;;;;;;21.39;59.04;100206.34;4429814;32;32758;-87
2022/07/03 03:51:21;;;;;;;8.30;6.28;;;;;;;21.61;58.07;100200.88;4424496;32;33695;-85
2022/07/03 03:53:49;;;;;;;9.68;7.25;;;;;;;21.79;57.29;100197.63;4406774;32;32722;-85
2022/07/03 03:56:19;;;;;;;8.63;6.65;;;;;;;21.63;58.01;100206.97;4412324;32;33570;-85
2022/07/03 03:58:47;;;;;;;9.15;6.45;;;;;;;21.79;57.26;100205.69;4404152;32;32794;-85
2022/07/03 04:01:16;;;;;;;7.55;6.68;;;;;;;22.33;55.61;100212.78;4418993;32;33217;-85
2022/07/03 04:03:44;;;;;;;7.90;6.68;;;;;;;22.35;55.58;100213.50;4416128;32;33386;-86
2022/07/03 04:06:13;;;;;;;9.82;6.72;;;;;;;22.31;56.00;100212.03;4409905;32;32621;-86
2022/07/03 04:08:40;;;;;;;8.98;6.72;;;;;;;22.28;56.24;100217.72;4408857;32;33852;-85
2022/07/03 04:11:09;;;;;;;9.48;6.00;;;;;;;22.20;55.97;100224.59;4397385;32;33271;-85
2022/07/03 04:13:37;;;;;;;7.32;5.87;;;;;;;22.56;55.55;100221.56;4416676;32;33471;-87
2022/07/03 04:16:06;;;;;;;9.13;7.10;;;;;;;22.69;54.67;100220.34;4414663;32;33769;-87
2022/07/03 04:18:35;;;;;;;7.53;6.40;;;;;;;22.55;55.58;100222.50;4416119;32;34123;-89
2022/07/03 04:21:04;;;;;;;6.47;5.47;;;;;;;22.54;55.79;100227.06;4419377;32;32589;-89
2022/07/03 04:23:32;;;;;;;9.23;6.55;;;;;;;22.65;55.84;100229.69;4402892;32;33419;-87
2022/07/03 04:26:06;;;;;;;7.72;6.18;;;;;;;22.55;55.47;100220.72;4421697;32;33495;-90
2022/07/03 04:28:51;;;;;;;11.65;6.00;;;;;;;22.68;55.29;100207.84;4406909;32;32493;-90
2022/07/03 04:31:38;;;;;;;7.35;6.37;;;;;;;23.06;54.59;100211.72;4412276;32;34069;-90
2022/07/03 04:34:12;;;;;;;8.73;6.82;;;;;;;23.34;54.00;100203.84;4406324;32;33332;-90
2022/07/03 04:36:41;;;;;;;9.95;5.78;;;;;;;22.99;54.17;100210.59;4403894;32;32956;-89
2022/07/03 04:39:49;;;;;;;8.57;7.03;;;;;;;23.33;53.75;100199.47;4401907;32;32202;-91
2022/07/03 04:42:32;;;;;;;8.60;6.18;;;;;;;23.72;52.93;100201.22;4408731;32;33704;-89
2022/07/03 04:45:10;;;;;;;8.35;6.35;;;;;;;23.87;52.59;100190.00;4407211;32;33317;-88
2022/07/03 04:47:39;;;;;;;7.62;6.22;;;;;;;24.15;52.13;100182.87;4421602;32;32892;-89
2022/07/03 04:50:07;;;;;;;7.37;5.87;;;;;;;24.35;52.37;100189.09;4416944;32;32675;-88
2022/07/03 04:52:35;;;;;;;7.82;6.95;;;;;;;24.33;52.21;100181.16;4416213;32;33952;-90
2022/07/03 04:55:04;;;;;;;13.93;7.07;;;;;;;24.45;52.34;100181.84;4409517;32;32416;-90
2022/07/03 04:57:33;;;;;;;9.50;6.53;;;;;;;24.32;52.45;100184.84;4409958;32;33576;-90
2022/07/03 05:00:01;;;;;;;7.78;6.07;;;;;;;24.48;51.84;100179.69;4406552;32;32218;-90
2022/07/03 05:02:35;;;;;;;7.72;5.87;;;;;;;24.57;51.05;100180.66;4417223;32;33801;-89
2022/07/03 05:05:05;;;;;;;7.20;5.65;;;;;;;24.86;51.38;100180.53;4418750;32;34869;-89
2022/07/03 05:07:34;;;;;;;7.82;6.40;;;;;;;25.01;51.52;100180.88;4392049;32;31113;-89
2022/07/03 05:10:03;;;;;;;6.55;5.80;;;;;;;25.00;51.30;100179.19;4392405;32;33159;-88
2022/07/03 05:12:33;;;;;;;6.97;6.22;;;;;;;25.20;50.37;100174.56;4415630;32;33841;-88
2022/07/03 05:15:08;;;;;;;7.82;7.03;;;;;;;25.26;50.30;100168.56;4423846;32;33686;-87
2022/07/03 05:17:36;;;;;;;7.87;6.95;;;;;;;25.19;50.21;100168.31;4405673;32;32446;-88
2022/07/03 05:23:02;;;;;;;10.73;6.75;;;;;;;25.17;50.78;100170.31;4418573;32;33578;-88
2022/07/03 05:25:34;;;;;;;8.85;6.50;;;;;;;25.00;50.12;100168.41;4416537;32;34180;-88
2022/07/03 05:28:03;;;;;;;7.15;6.45;;;;;;;25.57;49.61;100171.72;4419845;32;34566;-88
2022/07/03 05:30:31;;;;;;;8.25;7.43;;;;;;;25.74;48.93;100168.19;4419972;32;32174;-89
2022/07/03 05:33:01;;;;;;;7.93;6.75;;;;;;;25.85;48.54;100155.44;4393245;32;33049;-88
2022/07/03 05:35:31;;;;;;;9.43;7.00;;;;;;;25.99;47.84;100166.56;4392356;32;32861;-88
2022/07/03 05:37:59;;;;;;;8.25;6.75;;;;;;;26.04;48.27;100164.22;4396529;32;32907;-88
2022/07/03 05:40:28;;;;;;;7.37;6.60;;;;;;;25.65;48.76;100169.13;4427035;32;32145;-88
2022/07/03 05:42:56;;;;;;;9.32;6.72;;;;;;;25.78;48.78;100172.31;4413723;32;32713;-88
2022/07/03 05:45:27;;;;;;;7.03;6.07;;;;;;;25.89;49.20;100159.53;4422120;32;32473;-89
2022/07/03 05:47:57;;;;;;;6.97;6.22;;;;;;;26.25;48.71;100171.12;4414660;32;34198;-88
2022/07/03 05:50:29;;;;;;;6.55;5.78;;;;;;;26.29;47.30;100167.09;4420172;32;33968;-89
2022/07/03 05:52:57;;;;;;;7.47;5.65;;;;;;;26.09;49.00;100171.88;4405676;32;32964;-88
2022/07/03 05:55:25;;;;;;;6.65;6.03;;;;;;;26.08;49.05;100167.47;4408699;32;33971;-86
2022/07/03 05:57:53;;;;;;;9.82;5.93;;;;;;;26.36;47.82;100170.88;4414648;32;33392;-86
2022/07/03 06:00:21;;;;;;;10.32;6.65;;;;;;;26.00;48.30;100170.09;4419244;32;33226;-86
2022/07/03 06:02:50;;;;;;;9.63;6.62;;;;;;;26.34;47.99;100174.75;4410392;32;34060;-86
2022/07/03 06:05:18;;;;;;;8.75;6.90;;;;;;;26.66;47.46;100172.25;4420346;32;33437;-85
2022/07/03 06:07:47;;;;;;;6.60;5.87;;;;;;;27.03;46.37;100177.31;4395640;32;32642;-87
2022/07/03 06:10:16;;;;;;;7.03;5.90;;;;;;;27.02;46.80;100174.78;4409454;32;33532;-87
2022/07/03 06:12:44;;;;;;;8.15;6.65;;;;;;;27.25;46.21;100167.78;4428209;32;32739;-86
2022/07/03 06:15:13;;;;;;;7.15;6.45;;;;;;;27.39;44.69;100171.69;4409968;32;34009;-88
2022/07/03 06:17:43;;;;;;;7.55;5.65;;;;;;;27.46;46.40;100185.44;4409111;32;33517;-88
2022/07/03 06:20:15;;;;;;;7.05;5.78;;;;;;;27.55;44.46;100187.16;4401983;32;32139;-87
2022/07/03 06:22:44;;;;;;;8.40;6.22;;;;;;;27.46;45.97;100182.72;4401119;32;34161;-87
2022/07/03 06:25:12;;;;;;;7.43;6.25;;;;;;;27.37;45.46;100189.16;4403757;32;32629;-90
2022/07/03 06:27:43;;;;;;;6.70;6.00;;;;;;;27.37;45.22;100189.16;4410191;32;32722;-90
2022/07/03 06:30:13;;;;;;;6.62;5.65;;;;;;;27.56;44.93;100184.25;4426149;32;32495;-88
2022/07/03 06:32:41;;;;;;;6.57;5.95;;;;;;;27.80;44.04;100183.47;4418864;32;33162;-87
2022/07/03 06:35:10;;;;;;;9.48;5.90;;;;;;;27.45;45.22;100183.75;4411685;32;34219;-87
2022/07/03 06:37:38;;;;;;;6.25;5.65;;;;;;;27.97;44.72;100176.19;4423205;32;32416;-86
2022/07/03 06:40:08;;;;;;;7.68;6.43;;;;;;;28.01;43.55;100166.69;4419925;32;32252;-87
2022/07/03 06:42:37;;;;;;;6.62;5.70;;;;;;;27.62;45.02;100177.31;4397604;32;33469;-87
2022/07/03 06:45:07;;;;;;;7.30;6.05;;;;;;;28.04;43.57;100165.50;4392395;32;32606;-90
2022/07/03 06:47:40;;;;;;;7.60;5.80;;;;;;;27.99;44.56;100170.59;4378293;32;34404;-92
2022/07/03 06:50:35;;;;;;;7.82;6.72;;;;;;;28.18;44.07;100167.50;4378061;32;33983;-90
2022/07/03 06:53:04;;;;;;;6.53;5.80;;;;;;;28.83;43.83;100164.66;4383603;32;32735;-89
2022/07/03 06:55:33;;;;;;;6.78;6.12;;;;;;;28.98;43.43;100169.37;4389618;32;33282;-90
2022/07/03 06:58:22;;;;;;;7.97;5.43;;;;;;;29.20;42.41;100171.31;4388020;32;34041;-89
2022/07/03 07:00:50;;;;;;;9.18;6.90;;;;;;;28.80;42.84;100167.72;4383802;32;34194;-88
2022/07/03 07:03:18;;;;;;;9.18;5.55;;;;;;;28.60;44.01;100168.31;4376547;32;33149;-88
2022/07/03 07:05:46;;;;;;;8.82;5.93;;;;;;;28.83;41.69;100161.94;4378233;32;34750;-89
2022/07/03 07:08:16;;;;;;;6.22;5.62;;;;;;;29.09;42.06;100160.81;4385740;32;33475;-89
2022/07/03 07:10:46;;;;;;;6.95;5.87;;;;;;;28.92;42.43;100154.59;4378629;32;33119;-88
2022/07/03 07:13:16;;;;;;;10.15;6.55;;;;;;;29.10;41.53;100157.06;4382287;32;34476;-89
2022/07/03 07:15:47;;;;;;;6.15;5.60;;;;;;;28.81;42.26;100153.09;4375161;32;32720;-89
2022/07/03 07:18:19;;;;;;;6.53;5.57;;;;;;;29.11;42.30;100157.94;4368891;32;33292;-86
2022/07/03 07:20:50;;;;;;;6.85;5.55;;;;;;;29.38;41.95;100153.84;4381209;32;33106;-86
2022/07/03 07:23:25;;;;;;;6.55;5.82;;;;;;;29.43;41.24;100151.44;4380284;32;33271;-86
2022/07/03 07:25:53;;;;;;;10.20;6.37;;;;;;;29.58;41.90;100149.66;4380278;32;34965;-87
2022/07/03 07:28:22;;;;;;;10.60;5.93;;;;;;;29.65;40.31;100149.78;4380291;32;32709;-86
2022/07/03 07:30:55;;;;;;;6.43;5.82;;;;;;;29.66;40.79;100152.31;4380650;32;32116;-86
2022/07/03 07:33:24;;;;;;;5.60;5.10;;;;;;;29.32;41.10;100153.53;4368704;32;35030;-86
2022/07/03 07:35:52;;;;;;;7.43;5.75;;;;;;;29.40;40.88;100159.97;4368167;32;34405;-86
2022/07/03 07:38:20;;;;;;;7.50;6.12;;;;;;;29.56;39.92;100159.88;4380355;32;34310;-86
2022/07/03 07:40:51;;;;;;;6.53;5.68;;;;;;;29.44;40.78;100158.59;4368033;32;32352;-86
2022/07/03 07:43:19;;;;;;;6.10;5.60;;;;;;;29.35;40.50;100160.50;4360435;32;31959;-88
2022/07/03 07:45:48;;;;;;;9.60;6.05;;;;;;;29.64;39.80;100159.81;4376658;32;33336;-88
2022/07/03 07:48:18;;;;;;;6.18;5.57;;;;;;;30.35;38.93;100153.06;4364306;32;33619;-87
2022/07/03 07:50:48;;;;;;;6.20;5.60;;;;;;;30.35;39.52;100153.06;4395126;32;33607;-86
2022/07/03 07:53:24;;;;;;;7.12;6.12;;;;;;;29.78;40.79;100150.84;4398481;32;32541;-86
2022/07/03 07:56:04;;;;;;;7.57;6.65;;;;;;;29.81;40.58;100158.63;4399121;32;32524;-87
2022/07/03 07:58:32;;;;;;;10.10;5.97;;;;;;;30.12;39.28;100157.69;4397685;32;32131;-87
2022/07/03 08:06:37;;;;;;;10.63;6.12;;;;;;;31.07;39.01;100152.37;4409535;32;34631;-86
2022/07/03 08:09:06;;;;;;;6.32;5.68;;;;;;;31.27;37.75;100149.91;4405659;32;33168;-87
2022/07/03 08:11:35;;;;;;;6.80;6.12;;;;;;;31.22;37.55;100157.81;4410228;32;32827;-86
2022/07/03 08:14:07;;;;;;;8.68;6.07;;;;;;;31.28;37.71;100159.78;4409966;32;33155;-87
2022/07/03 08:16:36;;;;;;;6.05;5.45;;;;;;;31.01;36.79;100153.16;4413611;32;33722;-87
2022/07/03 08:19:07;;;;;;;6.00;5.40;;;;;;;30.97;37.03;100156.47;4382787;32;32851;-87
2022/07/03 08:21:37;;;;;;;6.57;5.97;;;;;;;31.65;35.39;100154.28;4382872;32;32457;-87
2022/07/03 08:26:46;;;;;;;8.63;6.43;;;;;;;31.85;36.33;100150.72;4395815;32;34805;-87
2022/07/03 08:29:16;;;;;;;7.70;6.03;;;;;;;31.10;37.39;100162.94;4419750;32;33725;-87
2022/07/03 08:31:45;;;;;;;9.18;5.93;;;;;;;30.68;38.08;100158.16;4410122;32;33767;-87
2022/07/03 08:34:18;;;;;;;;;;;;;;;31.16;38.19;100155.84;4422845;32;32899;-87
2022/07/03 08:36:47;;;;;;;10.25;7.00;;;;;;;30.66;37.63;100154.75;4410013;32;34394;-87
2022/07/03 08:39:21;;;;;;;11.07;6.35;;;;;;;31.07;37.42;100151.53;4421827;32;32862;-87
2022/07/03 08:41:58;;;;;;;7.60;6.07;;;;;;;31.04;37.42;100151.91;4422722;32;34248;-87
2022/07/03 08:48:43;;;;;;;5.70;5.12;;;;;;;31.66;36.81;100154.09;4423576;32;35740;-88
2022/07/03 08:51:21;;;;;;;8.73;5.53;;;;;;;32.11;34.32;100150.13;4424004;32;33871;-92
2022/07/03 08:54:05;;;;;;;6.90;5.40;;;;;;;31.85;34.26;100145.25;4395936;32;32613;-91
2022/07/03 08:56:49;;;;;;;5.57;5.03;;;;;;;31.62;35.59;100148.19;4402921;32;32379;-92
2022/07/03 08:59:42;;;;;;;5.82;5.25;;;;;;;32.11;34.13;100132.88;4407148;32;32352;-93
2022/07/03 09:02:23;;;;;;;6.18;5.57;;;;;;;32.72;34.02;100130.34;4354198;32;33613;-92
2022/07/03 09:05:10;;;;;;;6.28;5.68;;;;;;;32.62;35.04;100141.66;4392128;32;32216;-94
2022/07/03 09:08:06;;;;;;;6.82;6.07;;;;;;;32.68;32.73;100128.22;4402958;32;32636;-92
2022/07/03 09:10:47;;;;;;;6.15;5.00;;;;;;;32.49;33.93;100129.81;4415850;32;33488;-93
2022/07/03 09:13:31;;;;;;;8.93;5.45;;;;;;;32.39;35.07;100123.84;4367888;32;33129;-92
2022/07/03 09:16:24;;;;;;;5.20;4.70;;;;;;;32.71;32.90;100128.66;4390768;32;33259;-94
2022/07/03 09:19:11;;;;;;;8.48;4.82;;;;;;;32.72;32.57;100124.87;4414068;32;34101;-93
2022/07/03 09:22:05;;;;;;;5.35;4.62;;;;;;;32.84;33.66;100117.75;4378636;32;33018;-94
2022/07/03 09:24:55;;;;;;;6.43;4.85;;;;;;;33.12;32.27;100120.41;4423763;32;33469;-95
2022/07/03 09:27:49;;;;;;;4.72;4.25;;;;;;;33.08;32.51;100118.28;4378516;32;33043;-94
2022/07/03 09:31:04;;;;;;;6.43;5.65;;;;;;;33.33;30.59;100122.16;4405885;32;32955;-92
2022/07/03 09:34:04;;;;;;;6.78;4.10;;;;;;;33.46;30.58;100115.88;4382766;32;32845;-92
2022/07/03 09:36:56;;;;;;;4.93;4.45;;;;;;;33.15;31.61;100105.50;4394788;32;33075;-92
2022/07/03 09:39:39;;;;;;;5.82;4.57;;;;;;;33.30;30.39;100108.88;4403810;32;32188;-92
2022/07/03 09:42:27;;;;;;;6.57;5.07;;;;;;;32.87;30.53;100098.22;4373315;32;33893;-93
2022/07/03 09:45:23;;;;;;;5.97;4.43;;;;;;;33.03;29.39;100094.28;4408217;32;35433;-94
2022/07/03 09:47:53;;;;;;;5.35;4.07;;;;;;;33.06;30.32;100091.16;4381568;32;32787;-90
2022/07/03 09:50:43;;;;;;;5.82;4.35;;;;;;;33.23;30.35;100082.53;4396224;32;32914;-90
2022/07/03 09:53:16;;;;;;;5.85;5.35;;;;;;;33.45;30.63;100083.25;4381437;32;33629;-89
2022/07/03 09:55:58;;;;;;;5.15;4.65;;;;;;;33.95;28.88;100080.97;4382422;32;33020;-90
2022/07/03 09:58:33;;;;;;;5.12;4.62;;;;;;;34.08;29.17;100083.69;4394841;32;35665;-89
2022/07/03 10:01:22;;;;;;;5.05;4.55;;;;;;;34.42;28.78;100077.06;4381598;32;34225;-90
2022/07/03 10:03:52;;;;;;;7.25;5.03;;;;;;;34.23;28.38;100078.81;4382172;32;33725;-90
2022/07/03 10:06:19;;;;;;;9.38;5.32;;;;;;;34.55;28.19;100070.72;4381479;32;33962;-89
2022/07/03 10:08:50;;;;;;;6.70;4.68;;;;;;;34.69;28.05;100066.88;4394038;32;33024;-89
2022/07/03 10:11:20;;;;;;;4.80;4.30;;;;;;;34.64;27.82;100070.25;4381426;32;33216;-90
2022/07/03 10:13:49;;;;;;;5.10;3.78;;;;;;;34.31;29.65;100073.09;4393682;32;33008;-90
2022/07/03 10:16:19;;;;;;;4.93;4.43;;;;;;;34.48;28.59;100067.19;4381481;32;32877;-90
2022/07/03 10:18:54;;;;;;;5.93;4.45;;;;;;;34.54;28.69;100058.06;4382943;32;34661;-90
2022/07/03 10:21:26;;;;;;;6.22;4.20;;;;;;;34.69;27.66;100055.88;4380950;32;33803;-90
2022/07/03 10:24:01;;;;;;;4.93;4.32;;;;;;;34.35;28.80;100057.06;4382722;32;34058;-89
2022/07/03 10:26:30;;;;;;;4.12;3.35;;;;;;;34.13;28.99;100064.69;4380793;32;33396;-90
2022/07/03 10:29:04;;;;;;;4.03;3.50;;;;;;;34.21;29.20;100056.25;4395296;32;33119;-89
2022/07/03 10:31:34;;;;;;;4.55;3.17;;;;;;;34.51;26.97;100053.00;4396088;32;34049;-89
2022/07/03 10:34:06;;;;;;;4.68;3.67;;;;;;;34.68;27.05;100053.38;4395717;32;32715;-90
2022/07/03 10:36:36;;;;;;;3.53;3.20;;;;;;;34.84;27.05;100041.88;4383203;32;33457;-90
2022/07/03 10:39:06;;;;;;;7.30;3.95;;;;;;;34.97;26.53;100047.34;4382868;32;33588;-89
2022/07/03 10:44:46;;;;;;;3.37;3.08;;;;;;;35.29;25.79;100028.13;4385097;32;33120;-90
2022/07/03 10:47:48;;;;;;;5.35;3.35;;;;;;;35.11;25.40;100034.38;4397754;32;34205;-89
2022/07/03 10:50:19;;;;;;;5.10;3.50;;;;;;;35.21;25.30;100031.97;4382973;32;33058;-88
2022/07/03 10:52:49;;;;;;;6.57;3.78;;;;;;;34.97;26.26;100030.03;4395764;32;32523;-90
2022/07/03 10:55:24;;;;;;;4.65;3.10;;;;;;;35.30;26.98;100025.16;4396786;32;34755;-89
2022/07/03 10:58:08;;;;;;;4.78;2.60;;;;;;;35.44;25.62;100019.56;4396792;32;34796;-90
2022/07/03 11:00:52;;;;;;;3.83;3.17;;;;;;;35.63;25.20;100026.81;4395238;32;33765;-90
2022/07/03 11:03:49;;;;;;;4.55;3.17;;;;;;;35.85;25.11;100022.59;4392821;32;33081;-89
2022/07/03 11:06:17;;;;;;;6.43;3.25;;;;;;;35.13;27.23;100018.50;4394789;32;33168;-90
2022/07/03 11:09:06;;;;;;;5.45;3.62;;;;;;;35.71;24.89;100021.03;4392624;32;33734;-90
2022/07/03 11:11:57;;;;;;;5.28;3.22;;;;;;;35.76;26.55;100023.13;4384113;32;33223;-90
2022/07/03 11:14:28;;;;;;;4.50;3.25;;;;;;;35.51;25.61;100020.34;4385100;32;32234;-90
2022/07/03 11:17:18;;;;;;;4.62;3.03;;;;;;;35.49;28.15;100019.75;4395855;32;33092;-90
2022/07/03 11:22:50;;;;;;;4.53;3.17;;;;;;;35.97;25.63;100010.88;4398000;32;32865;-91
2022/07/03 11:25:20;;;;;;;5.90;3.50;;;;;;;35.79;26.52;100017.16;4407738;32;33671;-90
2022/07/03 11:27:53;;;;;;;4.25;3.85;;;;;;;36.23;26.46;100013.34;4382605;32;34322;-90
2022/07/03 11:30:26;;;;;;;6.70;3.35;;;;;;;36.31;26.33;100004.75;4395999;32;33186;-90
2022/07/03 11:32:58;;;;;;;4.35;3.85;;;;;;;36.23;24.64;99999.59;4395487;32;33291;-90
2022/07/03 11:35:49;;;;;;;4.32;3.03;;;;;;;36.07;26.02;100003.75;4395182;32;32954;-90
2022/07/03 11:38:21;;;;;;;4.72;3.30;;;;;;;35.28;27.55;100002.59;4394900;32;34496;-90
2022/07/03 11:43:27;;;;;;;4.95;3.42;;;;;;;35.77;27.01;99987.16;4395915;32;33329;-89
2022/07/03 11:46:00;;;;;;;12.77;3.35;;;;;;;36.03;26.46;99990.72;4391107;32;33102;-89
2022/07/03 11:48:30;;;;;;;6.18;3.40;;;;;;;35.60;27.56;99978.66;4357186;32;32766;-93
2022/07/03 11:51:11;;;;;;;5.47;2.97;;;;;;;36.05;26.16;99983.09;4381885;32;33788;-92
2022/07/03 11:54:01;;;;;;;6.47;3.20;;;;;;;35.83;25.33;99977.16;4385008;32;33309;-92
2022/07/03 11:56:32;;;;;;;4.93;3.53;;;;;;;35.27;27.66;99976.16;4372348;32;32322;-92
2022/07/03 11:59:04;;;;;;;5.68;2.90;;;;;;;35.89;26.89;99974.38;4386842;32;33214;-91
2022/07/03 12:01:37;;;;;;;4.05;3.33;;;;;;;36.31;25.59;99969.00;4381524;32;32728;-92
2022/07/03 12:04:23;;;;;;;;;;;;;;;35.92;26.15;99959.31;4386731;32;33396;-92
2022/07/03 12:06:55;;;;;;;5.57;3.08;;;;;;;35.71;27.58;99957.88;4396680;32;31726;-92
2022/07/03 12:09:33;;;;;;;8.75;3.53;;;;;;;36.05;26.01;99958.34;4398777;32;32647;-92
2022/07/03 12:12:05;;;;;;;4.03;2.67;;;;;;;35.86;25.59;99955.56;4392406;32;33140;-92
2022/07/03 12:14:43;;;;;;;4.90;3.45;;;;;;;35.95;26.01;99955.31;4382367;32;32830;-91
2022/07/03 12:17:21;;;;;;;3.78;2.75;;;;;;;36.41;25.96;99958.28;4386167;32;32276;-92
2022/07/03 12:20:00;;;;;;;6.55;2.67;;;;;;;36.83;25.40;99958.38;4395577;32;33768;-92
2022/07/03 12:22:37;;;;;;;3.62;2.70;;;;;;;36.77;24.95;99950.22;4393333;32;33003;-91
2022/07/03 12:25:15;;;;;;;4.37;2.97;;;;;;;36.77;26.13;99942.81;4397083;32;33181;-94
2022/07/03 12:28:06;;;;;;;4.28;2.60;;;;;;;37.06;25.90;99937.50;4378783;32;32013;-92
2022/07/03 12:30:35;;;;;;;;;;;;;;;37.21;25.02;99929.62;4385555;32;32889;-91